Time;durP1;ratioP1;P1;durP2;ratioP2;P2;SDS_P1;SDS_P2;PMS_P1;PMS_P2;Temp;Humidity;BMP_temperature;BMP_pressure;BME280_temperature;BME280_humidity;BME280_pressure;Samples;Min_cycle;Max_cycle;Signal;HPM_P1;HPM_P2
2023/01/15 00:00:31;;;;;;;11.60;7.80;;;;;;;15.83;51.69;100572.59;5094001;28;20131;-56
2023/01/15 00:03:00;;;;;;;13.30;8.10;;;;;;;15.81;51.66;100582.59;5093860;28;20115;-55
2023/01/15 00:05:28;;;;;;;12.95;7.95;;;;;;;15.79;51.84;100571.09;5093866;28;20068;-56
2023/01/15 00:07:56;;;;;;;10.82;7.43;;;;;;;15.74;51.93;100568.78;5094079;28;20055;-56
2023/01/15 00:10:25;;;;;;;12.70;8.32;;;;;;;15.72;51.71;100567.16;5093939;28;20040;-56
2023/01/15 00:12:54;;;;;;;12.23;8.27;;;;;;;15.68;51.94;100563.88;5093667;28;20072;-56
2023/01/15 00:15:22;;;;;;;12.93;7.93;;;;;;;15.66;51.72;100563.13;5093667;28;20044;-56
2023/01/15 00:17:51;;;;;;;11.68;7.63;;;;;;;15.64;51.72;100566.91;5093506;28;20101;-56
2023/01/15 00:20:20;;;;;;;12.18;8.45;;;;;;;15.62;51.70;100566.16;5093524;28;20051;-57
2023/01/15 00:22:48;;;;;;;12.05;8.10;;;;;;;15.58;51.91;100564.66;5093427;28;20044;-55
2023/01/15 00:28:02;;;;;;;12.93;8.20;;;;;;;15.53;51.80;100553.38;5093340;28;20580;-58
2023/01/15 00:30:31;;;;;;;11.70;7.80;;;;;;;15.50;51.66;100545.56;5093217;28;20446;-54
2023/01/15 00:33:01;;;;;;;11.98;7.55;;;;;;;15.48;51.71;100552.88;5093443;28;20378;-55
2023/01/15 00:35:29;;;;;;;13.43;8.15;;;;;;;15.44;51.88;100555.81;5093228;28;20044;-55
2023/01/15 00:37:59;;;;;;;10.65;7.63;;;;;;;15.41;51.88;100552.47;5092314;28;20036;-53
2023/01/15 00:40:28;;;;;;;11.60;7.65;;;;;;;15.38;52.04;100550.88;5093212;28;20428;-55
2023/01/15 00:42:59;;;;;;;11.43;6.95;;;;;;;15.35;51.96;100545.75;5093002;28;20493;-54
2023/01/15 00:45:27;;;;;;;12.50;7.63;;;;;;;15.31;51.86;100535.34;5093028;28;20047;-55
2023/01/15 00:47:55;;;;;;;11.32;7.72;;;;;;;15.31;51.78;100541.56;5092958;28;20040;-55
2023/01/15 00:50:26;;;;;;;13.02;8.02;;;;;;;15.29;51.85;100543.50;5092868;28;20485;-55
2023/01/15 00:52:54;;;;;;;11.90;7.88;;;;;;;15.25;52.05;100539.34;5092722;28;20047;-54
2023/01/15 00:55:22;;;;;;;10.95;7.10;;;;;;;15.24;51.77;100536.75;5092769;28;20093;-54
2023/01/15 00:57:50;;;;;;;11.43;7.22;;;;;;;15.22;51.96;100544.94;5092684;28;20427;-53
2023/01/15 01:00:21;;;;;;;12.02;7.40;;;;;;;15.18;51.78;100541.63;5092908;28;20143;-55
2023/01/15 01:02:49;;;;;;;11.63;7.18;;;;;;;15.18;51.94;100535.41;5092636;28;20481;-54
2023/01/15 01:05:17;;;;;;;12.18;7.13;;;;;;;15.16;51.89;100529.28;5091346;28;20040;-56
2023/01/15 01:07:46;;;;;;;12.60;7.57;;;;;;;15.12;51.76;100530.47;5092623;28;20044;-54
2023/01/15 01:10:15;;;;;;;11.40;7.70;;;;;;;15.10;51.81;100535.13;5092484;28;20044;-55
2023/01/15 01:12:47;;;;;;;11.10;7.40;;;;;;;15.08;51.81;100532.56;5092806;28;20040;-55
2023/01/15 01:15:15;;;;;;;10.38;7.15;;;;;;;15.06;51.90;100525.59;5092526;28;20044;-56
2023/01/15 01:17:43;;;;;;;9.77;6.75;;;;;;;15.04;51.75;100524.81;5091185;28;20101;-53
2023/01/15 01:20:13;;;;;;;9.30;6.38;;;;;;;15.02;51.74;100537.50;5092501;28;20052;-53
2023/01/15 01:22:41;;;;;;;10.00;6.85;;;;;;;15.00;51.88;100536.78;5092292;28;20074;-53
2023/01/15 01:25:11;;;;;;;11.48;7.05;;;;;;;14.98;51.71;100533.34;5092318;28;20044;-54
2023/01/15 01:27:39;;;;;;;10.43;7.00;;;;;;;14.94;51.68;100531.84;5092175;28;20132;-54
2023/01/15 01:30:11;;;;;;;9.85;7.00;;;;;;;14.94;51.85;100531.84;5092160;28;20078;-54
2023/01/15 01:32:39;;;;;;;10.68;7.32;;;;;;;14.90;51.47;100520.47;5092170;28;20516;-54
2023/01/15 01:35:08;;;;;;;9.93;6.93;;;;;;;14.88;51.73;100511.69;5092233;28;20454;-53
2023/01/15 01:37:36;;;;;;;13.23;7.40;;;;;;;14.85;51.96;100515.44;5092024;28;20048;-55
2023/01/15 01:40:07;;;;;;;12.88;7.85;;;;;;;14.82;51.66;100510.28;5092317;28;20051;-54
2023/01/15 01:42:40;;;;;;;9.70;6.45;;;;;;;14.81;51.92;100508.59;5092413;28;20043;-54
2023/01/15 01:45:19;;;;;;;9.00;6.70;;;;;;;14.79;51.63;100507.00;5092140;28;20054;-54
2023/01/15 01:47:47;;;;;;;10.55;6.60;;;;;;;14.77;51.85;100508.94;5091933;28;20097;-52
2023/01/15 01:50:16;;;;;;;11.23;7.45;;;;;;;14.75;51.90;100508.16;5091999;28;20072;-54
2023/01/15 01:52:48;;;;;;;9.95;7.00;;;;;;;14.72;51.77;100506.56;5090392;28;20052;-54
2023/01/15 01:55:20;;;;;;;9.57;6.53;;;;;;;14.69;51.72;100490.69;5091978;28;20044;-52
2023/01/15 01:57:51;;;;;;;10.27;7.00;;;;;;;14.66;51.44;100474.78;5091906;28;20055;-53
2023/01/15 02:00:24;;;;;;;10.20;6.82;;;;;;;14.66;51.76;100473.94;5091866;28;20089;-54
2023/01/15 02:02:54;;;;;;;10.55;7.10;;;;;;;14.63;51.74;100469.66;5091789;28;20202;-55
2023/01/15 02:05:29;;;;;;;10.95;7.32;;;;;;;14.61;51.62;100466.25;5092053;28;20048;-55
2023/01/15 02:07:57;;;;;;;10.75;7.30;;;;;;;14.58;51.51;100466.47;5091827;28;20043;-54
2023/01/15 02:10:26;;;;;;;9.82;6.65;;;;;;;14.56;51.52;100465.69;5091826;28;20044;-52
2023/01/15 02:13:04;;;;;;;9.85;6.55;;;;;;;14.55;51.51;100469.38;5091591;28;20540;-55
2023/01/15 02:15:35;;;;;;;11.25;7.20;;;;;;;14.53;51.53;100463.25;5091840;28;20435;-54
2023/01/15 02:18:12;;;;;;;11.13;7.03;;;;;;;14.50;51.62;100455.44;5091639;28;20044;-53
2023/01/15 02:20:44;;;;;;;11.02;7.18;;;;;;;14.49;51.72;100451.03;5090154;28;20044;-54
2023/01/15 02:23:48;;;;;;;10.02;6.47;;;;;;;14.47;51.79;100447.59;5091529;28;20069;-54
2023/01/15 02:26:55;;;;;;;10.32;6.35;;;;;;;14.43;51.79;100446.94;5066855;28;20237;-53
2023/01/15 02:29:33;;;;;;;10.85;7.00;;;;;;;14.42;51.70;100455.09;5091622;28;20048;-56
2023/01/15 02:32:10;;;;;;;10.77;7.25;;;;;;;14.40;51.65;100452.53;5091637;28;20484;-53
2023/01/15 02:34:46;;;;;;;9.77;7.15;;;;;;;14.37;51.68;100443.84;5090367;28;20131;-56
2023/01/15 02:37:20;;;;;;;9.85;6.53;;;;;;;14.37;51.70;100446.50;5091605;28;20052;-53
2023/01/15 02:39:56;;;;;;;9.70;6.72;;;;;;;14.34;51.60;100436.88;5091515;28;20052;-55
2023/01/15 02:42:27;;;;;;;11.13;6.70;;;;;;;14.33;51.78;100424.44;5091471;28;20048;-56
2023/01/15 02:45:01;;;;;;;10.32;6.90;;;;;;;14.30;51.93;100420.16;5091481;28;20044;-53
2023/01/15 02:47:35;;;;;;;10.68;6.55;;;;;;;14.28;51.65;100422.09;5091499;28;20127;-51
2023/01/15 02:50:08;;;;;;;9.40;6.63;;;;;;;14.27;51.68;100431.09;5091537;28;20396;-56
2023/01/15 02:52:43;;;;;;;9.88;6.93;;;;;;;14.24;51.82;100425.94;5091113;28;20048;-56
2023/01/15 02:55:16;;;;;;;10.05;6.88;;;;;;;14.23;51.67;100421.56;5091425;28;20048;-53
2023/01/15 02:57:46;;;;;;;9.48;6.60;;;;;;;14.21;51.68;100420.81;5091462;28;20040;-54
2023/01/15 03:00:21;;;;;;;11.10;6.95;;;;;;;14.21;51.72;100430.69;5092684;28;20048;-55
2023/01/15 03:02:55;;;;;;;10.43;6.85;;;;;;;14.18;51.89;100421.03;5094975;28;20101;-54
2023/01/15 03:05:28;;;;;;;9.82;6.50;;;;;;;14.17;51.72;100424.66;5094981;28;20062;-53
2023/01/15 03:07:59;;;;;;;10.70;6.75;;;;;;;14.15;51.78;100417.72;5094841;28;20044;-53
2023/01/15 03:10:35;;;;;;;8.52;5.95;;;;;;;14.13;51.68;100412.47;5094897;28;20048;-52
2023/01/15 03:13:06;;;;;;;9.27;6.28;;;;;;;14.12;51.72;100413.44;5093554;28;20048;-54
2023/01/15 03:18:35;;;;;;;9.50;6.28;;;;;;;14.08;51.56;100409.25;5094756;28;20051;-56
2023/01/15 03:21:08;;;;;;;9.38;6.50;;;;;;;14.06;51.88;100413.88;5094748;28;20051;-54
2023/01/15 03:23:40;;;;;;;9.15;6.38;;;;;;;14.05;51.83;100414.84;5094652;28;20039;-53
2023/01/15 03:26:08;;;;;;;10.20;6.80;;;;;;;14.04;51.90;100407.75;5094630;28;20115;-53
2023/01/15 03:28:39;;;;;;;10.70;6.55;;;;;;;14.02;51.87;100397.16;5094634;28;20533;-55
2023/01/15 03:31:08;;;;;;;10.20;6.70;;;;;;;14.01;51.71;100399.94;5094493;28;20404;-54
2023/01/15 03:33:37;;;;;;;10.23;6.20;;;;;;;13.99;51.81;100405.44;5094838;28;20075;-54
2023/01/15 03:36:06;;;;;;;8.75;6.07;;;;;;;13.98;51.79;100398.31;5094414;28;20089;-57
2023/01/15 03:38:37;;;;;;;9.60;6.75;;;;;;;13.96;51.88;100389.53;5094353;28;20044;-53
2023/01/15 03:41:17;;;;;;;9.30;6.53;;;;;;;13.94;51.92;100395.97;5094248;28;20048;-56
2023/01/15 03:44:00;;;;;;;9.32;6.80;;;;;;;13.93;51.88;100394.28;5094202;28;20044;-55
2023/01/15 03:46:43;;;;;;;9.68;5.90;;;;;;;13.92;51.89;100397.94;5094182;28;20162;-55
2023/01/15 03:49:19;;;;;;;9.00;6.57;;;;;;;13.90;51.92;100384.63;5092745;28;20056;-55
2023/01/15 03:51:59;;;;;;;10.63;6.28;;;;;;;13.89;51.94;100387.41;5094107;28;20439;-54
2023/01/15 03:54:38;;;;;;;9.75;6.70;;;;;;;13.86;51.86;100393.00;5094094;28;20114;-54
2023/01/15 03:57:11;;;;;;;9.48;6.43;;;;;;;13.85;51.99;100393.97;5093962;28;20047;-55
2023/01/15 03:59:47;;;;;;;9.77;6.55;;;;;;;13.84;51.93;100401.16;5093783;28;20052;-52
2023/01/15 04:02:19;;;;;;;8.73;6.10;;;;;;;13.83;51.81;100403.94;5093854;28;20071;-55
2023/01/15 04:04:49;;;;;;;9.85;6.20;;;;;;;13.81;51.78;100400.53;5093867;28;20101;-54
2023/01/15 04:07:17;;;;;;;9.45;6.45;;;;;;;13.79;51.87;100403.28;5093754;28;20048;-54
2023/01/15 04:09:49;;;;;;;8.73;5.97;;;;;;;13.78;51.85;100398.03;5092407;28;20093;-54
2023/01/15 04:12:17;;;;;;;9.65;6.38;;;;;;;13.75;52.16;100402.66;5093484;28;20135;-52
2023/01/15 04:14:46;;;;;;;10.13;7.03;;;;;;;13.74;51.87;100400.94;5092395;28;20052;-55
2023/01/15 04:17:14;;;;;;;9.73;6.60;;;;;;;13.73;51.84;100393.88;5093568;28;20477;-53
2023/01/15 04:19:43;;;;;;;9.15;5.88;;;;;;;13.70;51.97;100388.75;5093781;28;20094;-55
2023/01/15 04:22:12;;;;;;;9.45;6.30;;;;;;;13.70;52.11;100386.06;5093423;28;20044;-53
2023/01/15 04:24:40;;;;;;;9.15;5.82;;;;;;;13.68;51.76;100392.47;5093331;28;20044;-54
2023/01/15 04:27:08;;;;;;;9.32;5.68;;;;;;;13.69;51.90;100392.34;5093389;28;20144;-53
2023/01/15 04:29:38;;;;;;;9.27;6.13;;;;;;;13.67;51.90;100378.22;5093498;28;20052;-53
2023/01/15 04:32:06;;;;;;;9.30;6.10;;;;;;;13.65;51.74;100374.78;5093318;28;20094;-56
2023/01/15 04:34:35;;;;;;;8.68;5.90;;;;;;;13.65;51.92;100364.06;5093348;28;20063;-54
2023/01/15 04:37:04;;;;;;;7.80;5.30;;;;;;;13.63;52.38;100359.78;5093731;28;20121;-53
2023/01/15 04:39:32;;;;;;;7.95;5.50;;;;;;;13.64;53.12;100366.88;5093088;28;20048;-52
2023/01/15 04:44:46;;;;;;;7.50;4.97;;;;;;;13.77;54.18;100361.47;5093043;28;20090;-52
2023/01/15 04:47:14;;;;;;;8.18;5.05;;;;;;;13.88;54.30;100369.59;5093013;28;20119;-54
2023/01/15 04:49:43;;;;;;;7.82;5.05;;;;;;;14.01;54.25;100370.44;5092933;28;20119;-55
2023/01/15 04:52:12;;;;;;;7.20;4.85;;;;;;;14.13;54.22;100374.91;5092774;28;20056;-54
2023/01/15 04:54:40;;;;;;;8.55;5.30;;;;;;;14.24;54.16;100366.94;5092896;28;20101;-55
2023/01/15 04:57:08;;;;;;;7.90;4.85;;;;;;;14.38;53.96;100378.47;5092865;28;20050;-54
2023/01/15 04:59:37;;;;;;;8.13;5.05;;;;;;;14.52;53.81;100375.66;5092808;28;20059;-56
2023/01/15 05:02:05;;;;;;;7.55;5.15;;;;;;;14.62;53.56;100376.69;5092824;28;20114;-55
2023/01/15 05:04:35;;;;;;;6.65;4.65;;;;;;;14.75;53.51;100368.53;5092804;28;20068;-52
2023/01/15 05:07:04;;;;;;;6.93;4.97;;;;;;;14.86;53.29;100373.94;5092725;28;20072;-54
2023/01/15 05:09:34;;;;;;;7.75;5.22;;;;;;;14.99;53.21;100368.53;5092728;28;20044;-54
2023/01/15 05:12:03;;;;;;;7.85;4.55;;;;;;;15.07;52.99;100360.75;5091285;28;20054;-54
2023/01/15 05:14:31;;;;;;;6.97;4.47;;;;;;;15.16;52.84;100351.97;5092512;28;20040;-54
2023/01/15 05:16:59;;;;;;;7.10;4.90;;;;;;;15.26;52.72;100350.28;5091080;28;20056;-55
2023/01/15 05:19:27;;;;;;;7.40;4.80;;;;;;;15.34;52.66;100341.59;5092414;28;20048;-53
2023/01/15 05:21:55;;;;;;;6.47;4.78;;;;;;;15.48;52.48;100335.13;5092324;28;20131;-53
2023/01/15 05:24:24;;;;;;;6.32;4.25;;;;;;;15.58;52.41;100339.66;5092152;28;20473;-55
2023/01/15 05:26:54;;;;;;;7.28;4.63;;;;;;;15.68;52.27;100342.50;5092428;28;20043;-55
2023/01/15 05:29:22;;;;;;;6.95;4.55;;;;;;;15.79;52.14;100331.75;5092223;28;20493;-52
2023/01/15 05:31:51;;;;;;;7.30;4.85;;;;;;;15.89;51.99;100327.31;5092269;28;20040;-55
2023/01/15 05:34:19;;;;;;;6.22;4.38;;;;;;;15.98;51.99;100320.34;5092338;28;20040;-54
2023/01/15 05:36:47;;;;;;;6.55;4.30;;;;;;;16.06;51.80;100317.88;5090815;28;20044;-56
2023/01/15 05:39:15;;;;;;;7.32;4.75;;;;;;;16.09;51.67;100309.56;5092160;28;20397;-54
2023/01/15 05:41:49;;;;;;;6.68;4.30;;;;;;;16.10;51.68;100310.41;5092051;28;20097;-54
2023/01/15 05:44:22;;;;;;;6.18;4.30;;;;;;;16.11;51.79;100301.34;5092311;28;20073;-53
2023/01/15 05:46:52;;;;;;;5.40;3.67;;;;;;;16.11;51.79;100304.03;5092064;28;20064;-52
2023/01/15 05:49:22;;;;;;;6.60;4.57;;;;;;;16.13;51.72;100307.50;5092210;28;20389;-53
2023/01/15 05:51:51;;;;;;;6.63;4.10;;;;;;;16.18;51.70;100302.56;5091821;28;20401;-51
2023/01/15 05:54:21;;;;;;;6.28;4.10;;;;;;;16.21;51.71;100299.59;5091957;28;20462;-55
2023/01/15 05:56:49;;;;;;;6.32;4.18;;;;;;;16.21;51.73;100294.22;5091821;28;20040;-55
2023/01/15 05:59:21;;;;;;;6.93;4.55;;;;;;;16.23;51.68;100292.28;5091919;28;20401;-55
2023/01/15 06:01:49;;;;;;;6.90;4.30;;;;;;;16.21;51.65;100283.47;5090460;28;20055;-54
2023/01/15 06:04:20;;;;;;;6.38;4.05;;;;;;;16.18;51.77;100286.41;5091765;28;20093;-54
2023/01/15 06:06:49;;;;;;;6.18;4.00;;;;;;;16.12;51.80;100285.09;5091839;28;20412;-55
2023/01/15 06:09:17;;;;;;;6.10;4.05;;;;;;;16.08;51.91;100282.78;5091868;28;20443;-53
2023/01/15 06:11:46;;;;;;;6.15;3.67;;;;;;;16.03;51.99;100284.03;5091730;28;20048;-54
2023/01/15 06:14:15;;;;;;;5.70;4.05;;;;;;;16.00;52.08;100283.41;5091935;28;20044;-55
2023/01/15 06:16:44;;;;;;;6.05;3.72;;;;;;;15.96;51.99;100290.03;5091916;28;20052;-55
2023/01/15 06:19:13;;;;;;;6.40;4.57;;;;;;;15.90;52.33;100279.75;5091749;28;20447;-55
2023/01/15 06:21:42;;;;;;;4.90;3.53;;;;;;;15.85;52.15;100287.38;5091588;28;20125;-52
2023/01/15 06:24:10;;;;;;;6.57;4.18;;;;;;;15.80;52.27;100285.03;5091685;28;20048;-54
2023/01/15 06:26:39;;;;;;;6.63;4.28;;;;;;;15.76;52.27;100278.22;5090522;28;20048;-54
2023/01/15 06:29:07;;;;;;;5.90;4.25;;;;;;;15.71;52.56;100283.09;5091739;28;20040;-55
2023/01/15 06:31:35;;;;;;;6.70;4.13;;;;;;;15.65;52.38;100286.31;5091615;28;20512;-55
2023/01/15 06:34:05;;;;;;;5.45;3.97;;;;;;;15.62;52.40;100289.22;5091623;28;20058;-54
2023/01/15 06:36:33;;;;;;;6.07;3.97;;;;;;;15.57;52.48;100286.03;5095135;28;20127;-53
2023/01/15 06:39:01;;;;;;;5.78;3.78;;;;;;;15.53;52.51;100287.22;5095494;28;20044;-54
2023/01/15 06:47:22;;;;;;;5.97;4.25;;;;;;;15.37;52.65;100277.72;5095734;28;20097;-52
2023/01/15 06:49:54;;;;;;;5.75;3.72;;;;;;;15.33;52.66;100268.19;5095332;28;20054;-54
2023/01/15 06:52:24;;;;;;;6.43;4.05;;;;;;;15.29;52.62;100258.66;5095200;28;20629;-53
2023/01/15 06:54:52;;;;;;;7.63;4.50;;;;;;;15.25;52.63;100265.25;5095283;28;20055;-52
2023/01/15 06:57:21;;;;;;;5.90;3.88;;;;;;;15.20;52.77;100259.38;5095088;28;20048;-53
2023/01/15 06:59:50;;;;;;;6.53;4.15;;;;;;;15.16;52.95;100258.78;5095157;28;20377;-53
2023/01/15 07:02:20;;;;;;;6.70;4.25;;;;;;;15.13;52.84;100263.53;5093649;28;20083;-54
2023/01/15 07:04:48;;;;;;;7.85;4.13;;;;;;;15.08;53.05;100260.38;5094945;28;20052;-54
2023/01/15 07:07:20;;;;;;;6.38;3.95;;;;;;;15.03;53.09;100274.13;5093708;28;20054;-53
2023/01/15 07:09:53;;;;;;;6.97;4.13;;;;;;;15.01;52.79;100276.09;5094820;28;20503;-55
2023/01/15 07:12:22;;;;;;;6.88;4.68;;;;;;;14.97;52.72;100277.31;5094912;28;20052;-54
2023/01/15 07:14:50;;;;;;;5.88;4.20;;;;;;;14.94;52.56;100274.00;5094781;28;20556;-55
2023/01/15 07:17:18;;;;;;;6.88;4.63;;;;;;;14.89;52.43;100272.53;5094759;28;20047;-54
2023/01/15 07:19:46;;;;;;;7.90;4.88;;;;;;;14.86;52.30;100278.16;5094794;28;20117;-53
2023/01/15 07:22:15;;;;;;;7.18;4.60;;;;;;;14.81;52.05;100266.91;5094519;28;20056;-55
2023/01/15 07:24:44;;;;;;;8.32;4.75;;;;;;;14.78;52.14;100264.47;5094683;28;20048;-55
2023/01/15 07:27:12;;;;;;;6.78;4.47;;;;;;;14.75;51.91;100266.50;5094762;28;20079;-54
2023/01/15 07:29:42;;;;;;;8.38;5.03;;;;;;;14.74;51.97;100262.13;5093346;28;20101;-52
2023/01/15 07:32:11;;;;;;;8.10;4.80;;;;;;;14.71;52.01;100263.22;5094380;28;20069;-53
2023/01/15 07:34:40;;;;;;;7.25;4.45;;;;;;;14.68;52.02;100263.47;5094561;28;20054;-55
2023/01/15 07:37:08;;;;;;;7.85;4.53;;;;;;;14.67;52.02;100266.25;5093137;28;20063;-54
2023/01/15 07:39:37;;;;;;;8.82;5.60;;;;;;;14.63;51.86;100262.09;5094571;28;20503;-54
2023/01/15 07:50:33;;;;;;;6.53;4.18;;;;;;;14.49;52.24;100247.06;5055531;28;20049;-55
2023/01/15 07:53:02;;;;;;;6.97;4.50;;;;;;;14.47;52.71;100247.16;5093888;28;20056;-54
2023/01/15 07:55:30;;;;;;;5.75;3.97;;;;;;;14.50;53.04;100243.41;5093996;28;20040;-55
2023/01/15 07:58:00;;;;;;;6.60;4.20;;;;;;;14.55;53.36;100251.94;5093856;28;20075;-53
2023/01/15 08:00:29;;;;;;;7.75;4.55;;;;;;;14.66;53.45;100243.91;5092359;28;20040;-54
2023/01/15 08:02:58;;;;;;;6.53;4.28;;;;;;;14.76;53.33;100228.81;5093924;28;20051;-53
2023/01/15 08:05:26;;;;;;;7.43;4.30;;;;;;;14.85;53.20;100244.19;5093866;28;20385;-55
2023/01/15 08:07:54;;;;;;;7.55;4.03;;;;;;;14.90;53.09;100233.13;5093794;28;20488;-54
2023/01/15 08:10:24;;;;;;;6.25;4.20;;;;;;;14.95;52.96;100232.75;5093633;28;20053;-53
2023/01/15 08:15:42;;;;;;;6.85;4.45;;;;;;;14.98;52.87;100227.16;5093759;28;20105;-55
2023/01/15 08:18:11;;;;;;;6.57;4.32;;;;;;;14.98;52.99;100233.38;5093647;28;20070;-55
2023/01/15 08:20:45;;;;;;;6.15;3.90;;;;;;;14.97;53.01;100230.81;5092422;28;20052;-54
2023/01/15 08:23:15;;;;;;;6.32;3.85;;;;;;;14.95;53.08;100222.84;5093314;28;20053;-54
2023/01/15 08:25:43;;;;;;;7.93;4.57;;;;;;;14.93;53.23;100230.19;5093515;28;20409;-54
2023/01/15 08:28:13;;;;;;;6.90;4.47;;;;;;;14.92;53.34;100233.84;5093375;28;20067;-56
2023/01/15 08:30:43;;;;;;;7.45;4.60;;;;;;;14.89;53.29;100229.56;5092120;28;20052;-53
2023/01/15 08:33:11;;;;;;;7.38;4.40;;;;;;;14.86;53.63;100223.56;5093194;28;20226;-55
2023/01/15 08:35:39;;;;;;;7.47;4.32;;;;;;;14.84;53.55;100226.38;5091862;28;20071;-55
2023/01/15 08:38:08;;;;;;;7.85;4.47;;;;;;;14.80;53.56;100232.97;5093153;28;20124;-52
2023/01/15 08:40:57;;;;;;;6.57;4.45;;;;;;;14.79;53.71;100231.28;5091664;28;20052;-56
2023/01/15 08:43:25;;;;;;;7.13;4.38;;;;;;;14.77;53.67;100224.31;5090988;28;20067;-55
2023/01/15 08:45:58;;;;;;;8.43;5.13;;;;;;;14.74;53.39;100230.75;5092519;28;20126;-55
2023/01/15 08:48:28;;;;;;;7.93;4.83;;;;;;;14.72;53.56;100230.03;5092546;28;20043;-58
2023/01/15 08:50:56;;;;;;;7.97;4.70;;;;;;;14.69;53.54;100222.22;5088454;28;20101;-52
2023/01/15 08:53:25;;;;;;;8.32;4.70;;;;;;;14.66;53.61;100229.63;5092327;28;20048;-52
2023/01/15 08:55:53;;;;;;;7.70;4.65;;;;;;;14.64;53.59;100227.09;5092311;28;20036;-52
2023/01/15 08:58:41;;;;;;;6.72;4.25;;;;;;;14.62;53.61;100223.66;5091811;28;20052;-51
2023/01/15 09:01:31;;;;;;;8.38;4.75;;;;;;;14.59;53.70;100215.84;5090447;28;20525;-58
2023/01/15 09:03:59;;;;;;;7.93;4.93;;;;;;;14.56;53.74;100216.06;5092424;28;20044;-54
2023/01/15 09:06:28;;;;;;;7.57;5.03;;;;;;;14.55;53.66;100214.38;5091143;28;20048;-55
2023/01/15 09:08:58;;;;;;;8.18;4.93;;;;;;;14.53;53.65;100210.94;5092571;28;20408;-54
2023/01/15 09:11:27;;;;;;;7.65;5.05;;;;;;;14.50;53.77;100216.56;5092123;28;20686;-55
2023/01/15 09:13:55;;;;;;;8.27;5.20;;;;;;;14.49;53.60;100209.50;5091837;28;20040;-54
2023/01/15 09:16:25;;;;;;;7.93;4.85;;;;;;;14.47;53.65;100206.03;5091333;28;20040;-54
2023/01/15 09:18:55;;;;;;;6.88;4.65;;;;;;;14.46;53.56;100205.19;5091748;28;20130;-54
2023/01/15 09:21:23;;;;;;;8.52;5.40;;;;;;;14.43;53.46;100200.03;5091964;28;20381;-54
2023/01/15 09:23:51;;;;;;;9.43;4.93;;;;;;;14.41;53.44;100195.78;5091752;28;20403;-53
2023/01/15 09:26:29;;;;;;;7.68;4.88;;;;;;;14.40;53.40;100188.69;5092125;28;20123;-55
2023/01/15 09:28:59;;;;;;;7.78;4.78;;;;;;;14.39;53.46;100187.00;5092154;28;20044;-54
2023/01/15 09:31:28;;;;;;;7.85;5.07;;;;;;;14.37;53.43;100172.81;5092277;28;20216;-53
2023/01/15 09:33:58;;;;;;;8.27;5.40;;;;;;;14.35;53.32;100180.13;5091758;28;20486;-51
2023/01/15 09:36:28;;;;;;;8.77;5.47;;;;;;;14.32;53.23;100175.88;5090540;28;20050;-53
2023/01/15 09:38:57;;;;;;;8.77;5.40;;;;;;;14.30;53.23;100170.63;5091756;28;20044;-54
2023/01/15 09:44:28;;;;;;;7.72;4.90;;;;;;;14.26;53.64;100139.63;5088984;28;20089;-54
2023/01/15 09:47:07;;;;;;;7.03;4.97;;;;;;;14.25;53.65;100142.44;5090700;28;20082;-53
2023/01/15 09:49:55;;;;;;;8.50;5.53;;;;;;;14.23;53.51;100137.19;5091782;28;20047;-53
2023/01/15 09:52:32;;;;;;;8.85;5.00;;;;;;;14.21;53.37;100136.47;5091761;28;20048;-51
2023/01/15 09:55:06;;;;;;;8.48;5.32;;;;;;;14.19;53.29;100132.19;5090486;28;20044;-55
2023/01/15 09:57:36;;;;;;;7.55;5.10;;;;;;;14.18;53.17;100119.72;5090538;28;20047;-54
2023/01/15 10:00:07;;;;;;;8.60;5.00;;;;;;;14.15;53.44;100120.81;5091827;28;20059;-53
2023/01/15 10:02:41;;;;;;;7.93;4.82;;;;;;;14.15;53.01;100117.28;5091714;28;20098;-54
2023/01/15 10:05:18;;;;;;;7.85;4.97;;;;;;;14.13;53.13;100109.38;5090591;28;20048;-54
2023/01/15 10:07:55;;;;;;;7.70;4.90;;;;;;;14.12;53.07;100107.66;5079210;28;20486;-54
2023/01/15 10:10:32;;;;;;;7.30;4.65;;;;;;;14.11;53.41;100097.06;5075256;28;20402;-54
2023/01/15 10:13:09;;;;;;;6.50;4.60;;;;;;;14.10;53.23;100096.19;5075623;28;20048;-52
2023/01/15 10:15:41;;;;;;;9.80;5.53;;;;;;;14.08;53.20;100089.22;5075607;28;20060;-53
2023/01/15 10:18:15;;;;;;;8.77;4.55;;;;;;;14.07;53.11;100077.63;5075519;28;20048;-52
2023/01/15 10:21:07;;;;;;;10.63;4.80;;;;;;;14.07;53.37;100074.09;5075689;28;20452;-54
2023/01/15 10:23:43;;;;;;;9.27;4.70;;;;;;;14.08;54.32;100076.66;5082345;28;20047;-53
2023/01/15 10:26:16;;;;;;;12.15;5.18;;;;;;;14.13;56.12;100070.97;5095658;28;20118;-54
2023/01/15 10:29:03;;;;;;;14.55;4.90;;;;;;;14.14;56.15;100064.63;5095413;28;20051;-54
2023/01/15 10:31:48;;;;;;;17.00;5.10;;;;;;;14.18;57.32;100058.88;5092421;28;20115;-53
2023/01/15 10:34:36;;;;;;;12.07;5.45;;;;;;;14.24;58.40;100045.00;5091708;28;20066;-55
2023/01/15 10:37:12;;;;;;;9.85;5.07;;;;;;;14.30;58.39;100032.94;5095434;28;20419;-54
2023/01/15 10:39:52;;;;;;;16.58;5.25;;;;;;;14.36;58.42;100042.31;5095390;28;20077;-57
2023/01/15 10:42:32;;;;;;;13.73;5.55;;;;;;;14.35;57.68;100048.66;5094014;28;20138;-60
2023/01/15 10:45:11;;;;;;;16.13;6.18;;;;;;;14.35;57.92;100037.94;5095449;28;20064;-58
2023/01/15 10:47:42;;;;;;;20.40;5.63;;;;;;;14.33;57.44;100036.22;5094037;28;20044;-58
2023/01/15 10:50:17;;;;;;;14.13;5.20;;;;;;;14.33;57.26;100030.84;5095310;28;20082;-57
2023/01/15 10:52:50;;;;;;;14.57;4.82;;;;;;;14.31;56.98;100021.22;5093329;28;20056;-57
2023/01/15 10:55:24;;;;;;;10.02;5.03;;;;;;;14.29;56.77;100024.03;5092575;28;20036;-59
2023/01/15 10:57:59;;;;;;;17.55;5.38;;;;;;;14.27;56.85;100015.22;5094888;28;20047;-59
2023/01/15 11:00:38;;;;;;;14.73;4.95;;;;;;;14.25;56.69;100009.16;5093053;28;20068;-58
2023/01/15 11:03:13;;;;;;;15.52;4.97;;;;;;;14.25;56.50;100002.94;5093561;28;20052;-58
2023/01/15 11:05:44;;;;;;;13.05;5.10;;;;;;;14.23;56.36;99995.00;5093698;28;20408;-61
2023/01/15 11:08:24;;;;;;;20.98;5.78;;;;;;;14.24;56.57;99983.28;5094924;28;20101;-53
2023/01/15 11:11:20;;;;;;;35.20;6.22;;;;;;;14.28;57.09;99987.47;5094849;28;20040;-57
2023/01/15 11:19:36;;;;;;;32.40;6.45;;;;;;;14.26;56.62;99973.28;5094782;28;20047;-55
2023/01/15 11:22:11;;;;;;;21.80;6.32;;;;;;;14.24;56.55;99969.88;5093930;28;20066;-55
2023/01/15 11:24:49;;;;;;;56.58;7.80;;;;;;;14.26;57.75;99956.34;5093388;28;20067;-56
2023/01/15 11:27:21;;;;;;;52.03;8.80;;;;;;;14.31;59.51;99960.38;5093933;28;20044;-57
2023/01/15 11:29:53;;;;;;;61.38;9.10;;;;;;;14.36;60.50;99961.81;5093749;28;20059;-56
2023/01/15 11:32:29;;;;;;;48.75;9.18;;;;;;;14.40;60.70;99956.09;5092266;28;20060;-56
2023/01/15 11:34:59;;;;;;;35.80;7.63;;;;;;;14.46;61.21;99946.72;5092352;28;20044;-56
2023/01/15 11:37:30;;;;;;;42.17;7.88;;;;;;;14.56;60.82;99936.94;5093769;28;20032;-53
2023/01/15 11:40:06;;;;;;;47.60;8.88;;;;;;;14.72;60.61;99937.41;5090515;28;20485;-56
2023/01/15 11:51:06;;;;;;;45.10;7.15;;;;;;;15.35;59.84;99892.69;5091743;28;20044;-56
2023/01/15 11:53:41;;;;;;;23.17;6.20;;;;;;;15.51;59.72;99880.59;5093115;28;20097;-55
2023/01/15 11:56:13;;;;;;;26.08;6.53;;;;;;;15.65;59.43;99888.38;5093187;28;20036;-56
2023/01/15 11:58:45;;;;;;;27.00;6.68;;;;;;;15.77;59.07;99879.22;5093111;28;20400;-57
2023/01/15 12:01:21;;;;;;;25.48;6.75;;;;;;;15.90;58.98;99868.25;5090754;28;20050;-53
2023/01/15 12:03:49;;;;;;;30.50;6.07;;;;;;;16.01;58.62;99863.59;5093008;28;20036;-58
2023/01/15 12:06:20;;;;;;;29.05;6.45;;;;;;;16.13;58.34;99850.06;5093187;28;20042;-56
2023/01/15 12:08:50;;;;;;;24.98;6.15;;;;;;;16.22;58.10;99849.25;5093069;28;20489;-54
2023/01/15 12:11:45;;;;;;;24.58;6.28;;;;;;;16.35;57.78;99848.97;5093331;28;20044;-54
2023/01/15 12:14:40;;;;;;;21.00;6.07;;;;;;;16.55;57.26;99854.25;5083303;28;20044;-56
2023/01/15 12:17:20;;;;;;;24.45;6.18;;;;;;;16.68;57.23;99850.44;5090057;28;20089;-56
2023/01/15 12:19:58;;;;;;;24.80;5.88;;;;;;;16.82;56.97;99859.00;5091459;28;20044;-54
2023/01/15 12:22:42;;;;;;;14.30;5.35;;;;;;;16.95;56.84;99863.22;5089720;28;20051;-55
2023/01/15 12:25:27;;;;;;;28.55;6.25;;;;;;;17.05;56.70;99859.53;5091348;28;20472;-54